Time;durP1;ratioP1;P1;durP2;ratioP2;P2;SDS_P1;SDS_P2;PMS_P1;PMS_P2;Temp;Humidity;BMP_temperature;BMP_pressure;BME280_temperature;BME280_humidity;BME280_pressure;Samples;Min_cycle;Max_cycle;Signal;HPM_P1;HPM_P2
2022/09/07 00:01:58;;;;;;;;;7.50;7.00;;;;;21.29;61.82;101305.94;146615;585;46012;-70
2022/09/07 00:04:59;;;;;;;;;6.33;6.00;;;;;21.36;62.24;101306.09;146618;591;47011;-70
2022/09/07 00:07:52;;;;;;;;;5.00;5.00;;;;;21.44;62.03;101299.19;146616;586;47014;-70
2022/09/07 00:10:53;;;;;;;;;6.00;6.00;;;;;21.49;62.23;101304.53;146619;674;47010;-71
2022/09/07 00:13:56;;;;;;;;;6.67;6.67;;;;;21.46;61.97;101309.75;146616;617;46029;-70
2022/09/07 00:16:56;;;;;;;;;6.33;6.33;;;;;21.41;62.19;101300.91;146608;630;47010;-68
2022/09/07 00:19:55;;;;;;;;;5.33;5.33;;;;;21.36;62.91;101294.66;146612;606;46016;-73
2022/09/07 00:22:52;;;;;;;;;6.50;6.50;;;;;21.30;62.51;101295.41;146619;624;46014;-71
2022/09/07 00:25:46;;;;;;;;;5.00;5.00;;;;;21.21;62.21;101296.16;146615;574;46016;-71
2022/09/07 00:28:41;;;;;;;;;7.00;7.00;;;;;21.18;62.31;101298.75;146618;569;47010;-70
2022/09/07 00:31:52;;;;;;;;;7.67;6.00;;;;;21.21;62.44;101296.16;146615;574;46913;-69
2022/09/07 00:34:45;;;;;;;;;6.33;6.33;;;;;21.31;62.65;101305.09;146621;570;47010;-70
2022/09/07 00:37:41;;;;;;;;;7.67;7.00;;;;;21.39;62.73;101298.22;146615;576;46016;-70
2022/09/07 00:40:33;;;;;;;;;7.00;6.00;;;;;21.47;62.37;101295.72;146620;592;47010;-69
2022/09/07 00:44:00;;;;;;;;;;;;;;;;;;;;;
2022/09/07 00:46:55;;;;;;;;;7.00;6.00;;;;;21.54;62.13;101294.94;146608;576;47010;-69
2022/09/07 00:50:00;;;;;;;;;7.00;6.00;;;;;21.51;61.69;101297.53;146614;569;46914;-70
2022/09/07 00:53:07;;;;;;;;;7.00;5.00;;;;;21.44;62.18;101298.31;146621;632;46020;-69
2022/09/07 00:56:05;;;;;;;;;9.00;8.33;;;;;21.42;62.64;101300.03;146607;615;48914;-68
2022/09/07 00:59:05;;;;;;;;;7.67;6.33;;;;;21.40;62.05;101299.09;146619;563;47010;-68
2022/09/07 01:02:08;;;;;;;;;8.00;8.00;;;;;21.37;62.36;101299.06;146619;578;46012;-70
2022/09/07 01:05:08;;;;;;;;;7.00;7.00;;;;;21.36;62.08;101292.91;146619;583;47010;-70
2022/09/07 01:08:09;;;;;;;;;6.00;6.00;;;;;21.40;62.15;101289.47;146614;592;46016;-70
2022/09/07 01:11:04;;;;;;;;;7.00;7.00;;;;;21.41;62.72;101293.88;146616;714;47010;-70
2022/09/07 01:14:01;;;;;;;;;7.00;6.00;;;;;21.39;62.92;101287.66;146610;636;47012;-70
2022/09/07 01:17:37;;;;;;;;;8.33;7.00;;;;;21.38;62.19;101291.19;146609;581;46021;-71
2022/09/07 01:21:18;;;;;;;;;6.67;6.67;;;;;21.46;62.08;101286.00;146615;569;46012;-70
2022/09/07 01:24:54;;;;;;;;;7.67;7.33;;;;;19.93;62.16;101002.34;146622;595;46010;-73
2022/09/07 01:28:28;;;;;;;;;7.00;5.00;;;;;21.64;61.88;101275.75;146620;566;46016;-76
2022/09/07 01:31:45;;;;;;;;;7.00;6.33;;;;;21.71;62.41;101278.47;146617;568;46022;-73
2022/09/07 01:34:48;;;;;;;;;9.00;7.00;;;;;21.72;63.23;101272.34;146615;630;46016;-73
2022/09/07 01:38:16;;;;;;;;;9.67;9.67;;;;;21.67;62.28;101265.22;146620;621;47010;-71
2022/09/07 01:41:52;;;;;;;;;8.67;8.00;;;;;21.64;61.77;101267.81;146617;658;46914;-71
2022/09/07 01:45:20;;;;;;;;;;;;;;;;;;;;;
2022/09/07 01:48:30;;;;;;;;;8.67;8.33;;;;;21.58;62.30;101253.66;146615;593;46013;-73
2022/09/07 01:51:33;;;;;;;;;10.67;8.33;;;;;21.62;62.48;101261.66;146609;601;46020;-72
2022/09/07 01:54:50;;;;;;;;;12.75;10.00;;;;;20.64;61.58;101088.72;146613;634;47012;-74
2022/09/07 01:58:22;;;;;;;;;12.75;11.50;;;;;21.62;62.08;101259.00;146612;599;47010;-73
2022/09/07 02:01:37;;;;;;;;;10.75;9.75;;;;;20.62;61.65;101093.06;146608;594;46913;-71
2022/09/07 02:04:56;;;;;;;;;12.75;11.75;;;;;21.62;61.44;101266.94;146618;667;47010;-71
2022/09/07 02:08:03;;;;;;;;;10.50;9.50;;;;;21.66;61.68;101266.09;146608;560;47012;-71
2022/09/07 02:11:08;;;;;;;;;15.75;11.50;;;;;21.73;61.50;101275.00;146618;660;47010;-72
2022/09/07 02:14:10;;;;;;;;;16.00;13.75;;;;;21.76;61.63;101267.13;146610;635;46012;-70
2022/09/07 02:17:26;;;;;;;;;12.25;12.00;;;;;21.73;61.31;101275.00;146614;659;46020;-73
2022/09/07 02:20:32;;;;;;;;;12.25;10.50;;;;;21.73;61.59;101266.19;146609;698;46016;-71
2022/09/07 02:23:34;;;;;;;;;12.75;11.00;;;;;21.79;61.81;101263.63;146605;598;46020;-72
2022/09/07 02:26:31;;;;;;;;;14.00;10.75;;;;;21.83;61.66;101253.13;146610;593;46017;-72
2022/09/07 02:29:24;;;;;;;;;10.00;10.00;;;;;21.83;61.77;101262.81;146610;573;47010;-73
2022/09/07 02:32:16;;;;;;;;;16.75;14.25;;;;;21.81;61.85;101262.81;146606;570;46017;-72
2022/09/07 02:35:09;;;;;;;;;12.75;11.75;;;;;21.77;61.42;101262.72;146610;655;47010;-72
2022/09/07 02:38:12;;;;;;;;;13.75;12.75;;;;;21.71;62.18;101266.16;146607;604;47012;-70
2022/09/07 02:41:10;;;;;;;;;12.50;11.25;;;;;21.65;61.94;101266.97;146611;606;47010;-71
2022/09/07 02:44:07;;;;;;;;;13.50;12.50;;;;;21.64;62.06;101273.09;146608;565;47012;-71
2022/09/07 02:47:18;;;;;;;;;14.75;11.00;;;;;21.67;61.88;101273.16;146612;578;46020;-75
2022/09/07 02:51:04;;;;;;;;;14.25;12.50;;;;;20.74;61.83;101109.06;146607;575;46012;-74
2022/09/07 02:54:34;;;;;;;;;15.50;14.75;;;;;20.88;62.36;101140.06;146605;646;46021;-77
2022/09/07 02:58:06;;;;;;;;;15.50;12.25;;;;;21.53;61.95;101273.84;146608;701;47012;-76
2022/09/07 03:01:34;;;;;;;;;12.50;12.50;;;;;21.48;61.95;101268.47;146612;570;47010;-73
2022/09/07 03:05:09;;;;;;;;;15.50;12.75;;;;;21.53;61.75;101276.47;146608;582;47012;-72
2022/09/07 03:08:15;;;;;;;;;13.50;12.50;;;;;21.53;62.54;101289.66;146613;679;47010;-72
2022/09/07 03:12:01;;;;;;;;;13.00;13.00;;;;;20.48;61.73;101111.25;146610;563;46016;-73
2022/09/07 03:14:53;;;;;;;;;14.00;13.25;;;;;21.48;62.77;101278.13;146613;619;47010;-73
2022/09/07 03:17:50;;;;;;;;;14.25;12.50;;;;;21.52;62.66;101272.03;146610;670;47014;-74
2022/09/07 03:20:48;;;;;;;;;14.50;13.75;;;;;21.56;62.20;101284.44;146613;604;46020;-73
2022/09/07 03:23:43;;;;;;;;;11.25;11.25;;;;;21.57;63.23;101281.81;146607;564;47012;-70
2022/09/07 03:26:38;;;;;;;;;15.00;13.75;;;;;21.55;62.68;101272.06;146608;577;46020;-69
2022/09/07 03:29:39;;;;;;;;;11.00;11.00;;;;;21.54;62.24;101275.59;146610;610;47012;-69
2022/09/07 03:32:43;;;;;;;;;14.50;12.50;;;;;21.57;62.46;101273.87;146608;570;46021;-69
2022/09/07 03:35:37;;;;;;;;;17.00;13.25;;;;;21.57;63.09;101276.53;146607;569;47014;-69
2022/09/07 03:38:37;;;;;;;;;15.00;13.75;;;;;21.55;63.17;101286.16;146612;680;46020;-70
2022/09/07 03:41:30;;;;;;;;;14.25;12.00;;;;;21.53;63.18;101287.91;146604;635;47012;-69
2022/09/07 03:44:22;;;;;;;;;12.50;12.50;;;;;21.57;63.14;101294.13;146613;597;46010;-69
2022/09/07 03:47:17;;;;;;;;;13.50;12.50;;;;;21.61;63.10;101296.81;146608;571;47012;-70
2022/09/07 03:50:13;;;;;;;;;13.00;12.00;;;;;21.68;63.01;101301.34;146616;590;46031;-70
2022/09/07 03:53:08;;;;;;;;;13.00;13.00;;;;;21.71;64.51;101302.22;146610;566;46016;-80
2022/09/07 03:56:06;;;;;;;;;13.50;13.00;;;;;21.75;63.91;101304.06;146607;578;46016;-76
2022/09/07 03:59:09;;;;;;;;;12.00;10.50;;;;;20.13;63.52;101015.00;146611;613;46016;-75
2022/09/07 04:02:04;;;;;;;;;14.00;11.50;;;;;21.82;63.63;101309.44;146612;590;46020;-75
2022/09/07 04:05:11;;;;;;;;;13.75;12.50;;;;;21.86;63.13;101315.66;146611;569;46012;-75
2022/09/07 04:08:09;;;;;;;;;12.25;12.00;;;;;21.83;63.52;101302.41;146614;586;46020;-76
2022/09/07 04:11:16;;;;;;;;;16.50;12.50;;;;;20.06;62.52;101008.69;146610;657;46016;-74
2022/09/07 04:14:16;;;;;;;;;10.75;10.00;;;;;21.80;63.55;101311.16;146611;625;47014;-75
2022/09/07 04:17:23;;;;;;;;;13.25;12.25;;;;;21.82;63.13;101320.00;146603;569;46017;-74
2022/09/07 04:20:21;;;;;;;;;12.25;12.00;;;;;21.87;63.27;101312.16;146607;693;47010;-74
2022/09/07 04:23:28;;;;;;;;;12.25;11.75;;;;;21.92;62.94;101316.62;146603;587;46914;-72
2022/09/07 04:26:48;;;;;;;;;16.00;13.00;;;;;21.99;62.97;101329.91;146608;610;46020;-72
2022/09/07 04:29:53;;;;;;;;;12.50;11.75;;;;;22.01;63.35;101341.38;146607;623;47012;-70
2022/09/07 04:32:52;;;;;;;;;11.00;10.75;;;;;21.99;63.50;101337.81;146612;581;47010;-70
2022/09/07 04:36:02;;;;;;;;;14.00;12.00;;;;;22.00;63.65;101347.53;146608;638;47012;-71
2022/09/07 04:39:14;;;;;;;;;14.75;13.25;;;;;22.05;63.64;101343.19;146612;589;46020;-72
2022/09/07 04:42:11;;;;;;;;;14.25;12.50;;;;;22.05;63.91;101337.91;146607;563;46913;-71
2022/09/07 04:45:13;;;;;;;;;13.50;12.50;;;;;22.05;63.93;101344.06;146612;637;46021;-72
2022/09/07 04:48:11;;;;;;;;;15.75;13.75;;;;;22.03;63.70;101355.50;146610;618;46016;-74
2022/09/07 04:51:13;;;;;;;;;17.50;16.25;;;;;22.01;64.60;101365.16;146612;583;46020;-74
2022/09/07 04:54:13;;;;;;;;;16.00;14.50;;;;;21.97;65.03;101372.16;146610;616;46017;-74
2022/09/07 04:57:11;;;;;;;;;16.50;12.50;;;;;21.90;65.35;101375.56;146604;614;47010;-75
2022/09/07 05:00:17;;;;;;;;;14.75;12.75;;;;;21.85;65.36;101374.59;146612;626;46913;-72
2022/09/07 05:03:15;;;;;;;;;16.00;14.00;;;;;21.83;66.15;101371.03;146612;659;47010;-74
2022/09/07 05:06:11;;;;;;;;;13.75;13.75;;;;;21.83;66.85;101371.03;146607;576;47012;-72
2022/09/07 05:09:14;;;;;;;;;22.75;18.25;;;;;21.79;68.74;101371.88;146610;577;46020;-71
2022/09/07 05:12:06;;;;;;;;;21.00;20.75;;;;;21.67;69.03;101380.47;146610;570;46016;-70
2022/09/07 05:15:16;;;;;;;;;19.50;17.50;;;;;21.52;69.59;101383.75;146613;599;46011;-70
2022/09/07 05:18:26;;;;;;;;;18.25;18.25;;;;;21.38;68.06;101374.72;146611;600;46016;-72
2022/09/07 05:21:37;;;;;;;;;21.25;17.00;;;;;21.32;69.40;101377.22;146613;600;46020;-70
2022/09/07 05:24:36;;;;;;;;;29.75;26.75;;;;;21.26;71.17;101379.75;146610;564;46016;-69
2022/09/07 05:27:28;;;;;;;;;27.75;26.50;;;;;21.18;70.46;101383.13;146603;635;46885;-70
2022/09/07 05:30:28;;;;;;;;;22.00;20.00;;;;;21.14;69.94;101386.56;146609;589;46025;-70
2022/09/07 05:33:36;;;;;;;;;15.25;15.25;;;;;21.14;70.66;101394.47;146609;592;46014;-70
2022/09/07 05:36:42;;;;;;;;;15.00;13.50;;;;;20.19;70.25;101221.34;146607;680;46013;-71
2022/09/07 05:39:39;;;;;;;;;19.75;18.00;;;;;21.21;70.79;101390.19;146610;585;46010;-71
2022/09/07 05:42:47;;;;;;;;;9.75;9.75;;;;;21.29;70.16;101388.59;146604;657;46012;-72
2022/09/07 05:46:03;;;;;;;;;9.33;9.33;;;;;20.43;69.31;101214.75;146619;672;46020;-68
2022/09/07 05:49:02;;;;;;;;;10.00;10.00;;;;;21.47;69.94;101385.44;146615;563;46012;-69
2022/09/07 05:52:04;;;;;;;;;9.33;7.00;;;;;21.56;69.74;101382.06;146611;653;46021;-69
2022/09/07 05:54:58;;;;;;;;;9.00;8.75;;;;;21.63;69.09;101374.25;146608;570;47016;-72
2022/09/07 05:58:12;;;;;;;;;10.50;10.50;;;;;21.78;69.50;101385.94;146605;614;47010;-78
2022/09/07 06:01:18;;;;;;;;;10.00;9.00;;;;;21.91;68.52;101390.53;146611;629;46016;-74
2022/09/07 06:04:27;;;;;;;;;12.00;12.00;;;;;20.33;67.49;101092.56;146618;724;46010;-74
2022/09/07 06:07:23;;;;;;;;;13.00;13.00;;;;;22.19;68.04;101402.44;146608;599;46017;-75
2022/09/07 06:10:31;;;;;;;;;17.75;14.75;;;;;22.30;66.76;101403.47;146613;587;46024;-74
2022/09/07 06:13:26;;;;;;;;;20.00;16.50;;;;;22.38;66.05;101408.88;146608;680;46017;-83
2022/09/07 06:16:26;;;;;;;;;17.50;15.00;;;;;22.46;65.55;101406.31;146607;600;46021;-78
2022/09/07 06:19:24;;;;;;;;;13.25;13.00;;;;;22.52;65.86;101403.75;146605;578;47014;-78
2022/09/07 06:22:25;;;;;;;;;17.25;13.00;;;;;22.56;65.28;101408.22;146611;579;46021;-87
2022/09/07 06:25:19;;;;;;;;;16.25;15.50;;;;;22.57;65.66;101413.53;146610;571;46012;-77
2022/09/07 06:28:20;;;;;;;;;16.50;13.50;;;;;22.57;65.93;101410.88;146607;565;46020;-76
2022/09/07 06:31:25;;;;;;;;;17.00;14.75;;;;;22.59;65.82;101406.50;146610;594;46016;-75
2022/09/07 06:34:26;;;;;;;;;15.50;15.50;;;;;22.63;65.48;101398.63;146613;607;47010;-75
2022/09/07 06:37:23;;;;;;;;;20.25;16.25;;;;;22.61;65.25;101401.22;146609;588;47012;-76
2022/09/07 06:40:28;;;;;;;;;19.75;15.25;;;;;22.57;65.21;101402.06;146612;680;47010;-75
2022/09/07 06:43:32;;;;;;;;;20.00;19.00;;;;;22.54;65.74;101409.94;146610;565;46016;-76
2022/09/07 06:46:25;;;;;;;;;20.75;17.50;;;;;22.53;66.71;101418.75;146613;623;46010;-76
2022/09/07 06:49:32;;;;;;;;;21.50;18.00;;;;;22.51;65.79;101415.19;146607;576;46030;-75
2022/09/07 06:52:24;;;;;;;;;15.50;13.75;;;;;22.58;66.85;101412.63;146613;636;46021;-76
2022/09/07 06:55:35;;;;;;;;;14.50;13.75;;;;;22.69;64.89;101412.78;146610;563;46016;-72
2022/09/07 06:58:32;;;;;;;;;12.25;12.25;;;;;22.83;65.63;101411.22;146608;570;46029;-71
2022/09/07 07:01:33;;;;;;;;;13.00;11.75;;;;;23.07;65.42;101406.22;146610;646;46016;-71
2022/09/07 07:04:30;;;;;;;;;11.50;10.25;;;;;23.52;65.00;101409.31;146610;582;46014;-69
2022/09/07 07:07:23;;;;;;;;;12.33;11.00;;;;;24.13;63.92;101400.97;146610;576;46016;-70
2022/09/07 07:10:29;;;;;;;;;13.00;11.25;;;;;24.70;60.12;101405.69;146612;607;46010;-71
2022/09/07 07:13:28;;;;;;;;;13.00;11.67;;;;;25.03;58.97;101412.91;146604;634;47015;-69
2022/09/07 07:16:24;;;;;;;;;13.50;11.00;;;;;25.29;57.88;101407.66;146612;565;46020;-69
2022/09/07 07:19:30;;;;;;;;;9.33;9.33;;;;;25.55;57.40;101410.37;146608;584;46913;-70
2022/09/07 07:22:38;;;;;;;;;10.75;9.75;;;;;25.74;55.92;101427.19;146618;566;46020;-71
2022/09/07 07:25:36;;;;;;;;;10.33;10.00;;;;;25.92;54.66;101421.00;146615;577;47014;-70
2022/09/07 07:28:40;;;;;;;;;14.33;10.00;;;;;25.95;54.39;101429.87;146607;612;46021;-69
2022/09/07 07:31:39;;;;;;;;;11.25;11.00;;;;;25.87;54.65;101428.09;146607;627;47012;-70
2022/09/07 07:34:46;;;;;;;;;10.75;10.50;;;;;25.73;55.20;101425.41;146613;590;46010;-72
2022/09/07 07:37:46;;;;;;;;;8.67;8.00;;;;;25.59;56.09;101430.72;146608;591;46017;-70
2022/09/07 07:40:48;;;;;;;;;10.00;9.75;;;;;25.52;56.11;101431.59;146619;618;46010;-74
2022/09/07 07:43:44;;;;;;;;;9.67;9.67;;;;;25.48;56.44;101441.34;146612;655;46016;-71
2022/09/07 07:46:43;;;;;;;;;7.33;7.33;;;;;25.46;56.28;101445.75;146623;626;46010;-74
2022/09/07 07:49:35;;;;;;;;;11.00;8.00;;;;;25.50;56.21;101438.69;146618;643;46016;-77
2022/09/07 07:52:46;;;;;;;;;8.33;8.00;;;;;25.57;55.05;101451.94;146617;599;46021;-74
2022/09/07 07:55:43;;;;;;;;;8.33;8.33;;;;;25.63;54.04;101452.84;146616;569;46016;-73
2022/09/07 07:58:42;;;;;;;;;8.00;7.25;;;;;25.67;53.91;101451.94;146608;665;46021;-74
2022/09/07 08:01:35;;;;;;;;;9.33;9.33;;;;;25.76;54.82;101460.84;146614;695;46016;-73
2022/09/07 08:04:30;;;;;;;;;9.00;8.33;;;;;25.88;54.34;101459.97;146622;598;46010;-75
2022/09/07 08:07:24;;;;;;;;;5.33;4.33;;;;;25.97;52.99;101464.41;146615;569;46017;-76
2022/09/07 08:10:25;;;;;;;;;7.50;7.50;;;;;26.06;53.37;101458.19;146617;685;46010;-76
2022/09/07 08:13:24;;;;;;;;;7.00;7.00;;;;;26.27;53.83;101456.41;146612;564;47014;-75
2022/09/07 08:16:19;;;;;;;;;8.33;8.33;;;;;26.64;52.93;101459.00;146618;563;47010;-74
2022/09/07 08:19:18;;;;;;;;;7.67;7.67;;;;;26.81;53.22;101447.41;146610;699;47912;-75
2022/09/07 08:22:14;;;;;;;;;9.33;8.00;;;;;26.91;54.27;101457.97;146618;564;46020;-75
2022/09/07 08:25:20;;;;;;;;;8.67;8.67;;;;;26.10;53.33;101298.72;146617;579;46016;-75
2022/09/07 08:28:16;;;;;;;;;9.00;7.00;;;;;27.02;53.02;101441.09;146608;590;46021;-75
2022/09/07 08:31:18;;;;;;;;;9.33;9.00;;;;;27.11;52.73;101433.94;146615;605;46016;-75
2022/09/07 08:34:20;;;;;;;;;;;;;;;;;;;;;
2022/09/07 08:37:30;;;;;;;;;5.00;5.00;;;;;27.62;49.75;101429.16;146618;628;46017;-75
2022/09/07 08:40:34;;;;;;;;;8.67;7.00;;;;;27.87;48.52;101431.66;146618;650;47010;-77
2022/09/07 08:44:05;;;;;;;;;7.00;7.00;;;;;27.91;51.11;101432.50;146616;581;46017;-74
2022/09/07 08:47:45;;;;;;;;;;;;;;;;;;;;;
2022/09/07 08:51:24;;;;;;;;;7.67;7.33;;;;;27.27;51.81;101287.44;146612;627;47014;-76
2022/09/07 08:54:22;;;;;;;;;7.00;7.00;;;;;28.24;50.04;101423.31;146621;591;46020;-74
2022/09/07 08:57:40;;;;;;;;;6.67;6.67;;;;;28.31;48.47;101419.66;146616;569;46017;-74
2022/09/07 09:00:45;;;;;;;;;9.00;8.00;;;;;27.54;50.47;101271.19;146605;564;46010;-74
2022/09/07 09:03:53;;;;;;;;;8.67;7.67;;;;;26.98;50.43;101168.78;146612;568;46016;-77
2022/09/07 09:07:25;;;;;;;;;8.67;8.67;;;;;28.41;50.87;101416.03;146620;664;46020;-75
2022/09/07 09:11:07;;;;;;;;;7.33;7.33;;;;;28.25;51.20;101414.41;146615;569;47012;-77
2022/09/07 09:14:18;;;;;;;;;9.00;9.00;;;;;28.27;51.04;101415.28;146622;587;46011;-76
2022/09/07 09:17:29;;;;;;;;;8.00;8.00;;;;;28.37;47.15;101410.72;146618;566;46012;-78
2022/09/07 09:20:41;;;;;;;;;;;;;;;;;;;;;
2022/09/07 09:23:43;;;;;;;;;8.00;8.00;;;;;28.49;49.04;101406.16;146616;595;47012;-76
2022/09/07 09:26:51;;;;;;;;;8.00;8.00;;;;;28.61;49.17;101410.47;146617;568;47010;-76
2022/09/07 09:29:46;;;;;;;;;10.00;9.00;;;;;28.63;45.81;101390.00;146615;626;47012;-76
2022/09/07 09:32:59;;;;;;;;;9.00;8.67;;;;;28.72;47.55;101396.97;146607;577;46020;-76
2022/09/07 09:35:54;;;;;;;;;7.00;7.00;;;;;28.78;45.89;101388.88;146618;599;46012;-77
2022/09/07 09:38:54;;;;;;;;;6.33;6.33;;;;;28.88;44.22;101384.28;146618;563;46020;-72
2022/09/07 09:41:46;;;;;;;;;8.67;7.00;;;;;28.95;45.48;101376.19;146615;703;46016;-77
2022/09/07 09:44:55;;;;;;;;;9.67;9.67;;;;;29.11;47.42;101376.00;146621;579;46020;-75
2022/09/07 09:48:14;;;;;;;;;8.00;8.00;;;;;27.69;47.05;101146.69;146615;607;47012;-76
2022/09/07 09:51:35;;;;;;;;;10.00;9.50;;;;;28.23;47.41;101269.56;146619;639;46020;-75
2022/09/07 09:54:55;;;;;;;;;11.33;10.33;;;;;27.90;48.12;101237.06;146615;611;46016;-75
2022/09/07 09:58:11;;;;;;;;;8.00;8.00;;;;;28.66;47.87;101367.69;146612;654;47010;-74
2022/09/07 10:01:06;;;;;;;;;8.00;8.00;;;;;28.77;44.43;101365.78;146616;593;46016;-74
2022/09/07 10:03:58;;;;;;;;;10.00;9.33;;;;;28.90;43.82;101362.00;146607;631;46020;-74
2022/09/07 10:07:31;;;;;;;;;8.00;8.00;;;;;29.01;46.08;101369.91;146612;580;46037;-74
2022/09/07 10:10:30;;;;;;;;;8.00;7.67;;;;;29.04;45.75;101371.66;146621;564;47010;-76
2022/09/07 10:13:31;;;;;;;;;9.33;8.67;;;;;28.24;48.39;101234.84;146614;589;46913;-74
2022/09/07 10:16:43;;;;;;;;;8.67;8.67;;;;;27.83;48.95;101219.41;146622;615;46020;-74
2022/09/07 10:19:53;;;;;;;;;10.33;9.67;;;;;28.40;48.68;101352.91;146615;571;46017;-75
2022/09/07 10:23:17;;;;;;;;;7.00;7.00;;;;;28.31;47.15;101351.19;146617;673;46020;-76
2022/09/07 10:26:43;;;;;;;;;11.00;9.00;;;;;26.56;45.21;101100.84;146613;621;46016;-73
2022/09/07 10:29:42;;;;;;;;;8.00;7.00;;;;;27.83;46.90;101348.19;146618;572;46020;-75
2022/09/07 10:33:18;;;;;;;;;8.67;8.67;;;;;27.71;46.63;101344.75;146616;666;46016;-76
2022/09/07 10:37:10;;;;;;;;;7.67;7.67;;;;;26.49;46.87;101095.59;146610;564;46010;-74
2022/09/07 10:40:53;;;;;;;;;;;;;;;;;;;;;
2022/09/07 10:43:51;;;;;;;;;10.00;9.00;;;;;28.47;45.95;101335.03;146621;567;47010;-74
2022/09/07 10:47:03;;;;;;;;;10.67;8.67;;;;;28.66;46.59;101336.56;146612;595;47012;-74
2022/09/07 10:50:31;;;;;;;;;7.67;7.67;;;;;27.95;47.71;101199.72;146617;564;47010;-72
2022/09/07 10:54:14;;;;;;;;;10.33;10.33;;;;;27.32;46.66;101094.78;146618;653;46016;-72
2022/09/07 10:57:38;;;;;;;;;8.25;8.25;;;;;28.57;47.12;101341.13;146611;572;46021;-74
2022/09/07 11:00:56;;;;;;;;;8.00;8.00;;;;;28.42;46.06;101340.44;146613;611;47012;-72
2022/09/07 11:04:55;;;;;;;;;10.33;8.00;;;;;28.48;47.41;101335.03;146615;658;46021;-77
2022/09/07 11:08:40;;;;;;;;;9.50;8.75;;;;;28.68;47.45;101341.87;146615;624;46016;-72
2022/09/07 11:12:00;;;;;;;;;10.33;8.33;;;;;28.83;47.29;101335.44;146610;665;46010;-75
2022/09/07 11:15:33;;;;;;;;;9.00;8.33;;;;;28.28;45.80;101225.00;146613;604;47915;-75
2022/09/07 11:18:48;;;;;;;;;11.00;10.00;;;;;29.02;46.09;101323.62;146618;610;46021;-74
2022/09/07 11:21:46;;;;;;;;;9.67;9.67;;;;;29.10;45.35;101328.84;146610;585;46016;-74
2022/09/07 11:25:43;;;;;;;;;;;;;;;;;;;;;
2022/09/07 11:29:04;;;;;;;;;9.33;8.33;;;;;29.36;45.91;101317.72;146616;658;46034;-73
2022/09/07 11:32:23;;;;;;;;;11.67;10.00;;;;;29.40;46.04;101319.41;146619;695;46010;-71
2022/09/07 11:36:00;;;;;;;;;10.25;9.25;;;;;29.46;45.22;101311.31;146610;633;46016;-72
2022/09/07 11:39:11;;;;;;;;;9.67;8.67;;;;;29.46;43.34;101309.50;146618;585;46020;-74
2022/09/07 11:43:00;;;;;;;;;11.67;11.00;;;;;28.67;44.16;101164.88;146615;585;46017;-72
2022/09/07 11:46:17;;;;;;;;;12.67;11.00;;;;;29.50;44.95;101310.31;146606;564;46010;-72
2022/09/07 11:49:36;;;;;;;;;10.00;10.00;;;;;28.71;45.45;101173.72;146609;609;46016;-73
2022/09/07 11:53:02;;;;;;;;;9.67;8.00;;;;;28.78;44.87;101157.59;146613;603;46020;-72
2022/09/07 11:56:24;;;;;;;;;10.25;9.50;;;;;29.68;44.54;101294.00;146613;669;46915;-74
2022/09/07 11:59:50;;;;;;;;;12.25;12.00;;;;;29.79;45.66;101285.78;146618;613;46014;-72
2022/09/07 12:03:30;;;;;;;;;9.33;9.00;;;;;29.85;45.66;101291.00;146610;596;46016;-69
2022/09/07 12:07:10;;;;;;;;;12.00;12.00;;;;;29.83;44.53;101281.25;146616;576;46037;-71
2022/09/07 12:10:45;;;;;;;;;12.00;10.67;;;;;29.88;45.67;101290.94;146610;668;47012;-71
2022/09/07 12:14:20;;;;;;;;;12.00;10.67;;;;;29.87;44.31;101281.16;146610;664;47010;-74
2022/09/07 12:17:31;;;;;;;;;18.75;16.50;;;;;29.80;44.05;101271.50;146610;609;46016;-71
2022/09/07 12:20:50;;;;;;;;;13.25;10.25;;;;;29.70;44.51;101267.25;146609;723;46010;-72
2022/09/07 12:23:51;;;;;;;;;11.00;10.00;;;;;29.55;43.12;101267.50;146608;673;46913;-72
2022/09/07 12:27:03;;;;;;;;;12.00;12.00;;;;;29.49;43.42;101270.28;146612;572;46021;-73
2022/09/07 12:30:45;;;;;;;;;13.00;11.00;;;;;28.62;45.15;101123.16;146609;632;46016;-72
2022/09/07 12:33:47;;;;;;;;;13.00;13.00;;;;;29.41;43.34;101262.44;146614;699;46021;-74
2022/09/07 12:37:12;;;;;;;;;;;;;;;;;;;;;
2022/09/07 12:40:54;;;;;;;;;15.00;11.67;;;;;29.36;44.37;101259.81;146613;653;46010;-73
2022/09/07 12:44:16;;;;;;;;;12.25;12.25;;;;;29.40;44.27;101266.88;146608;613;46016;-73
2022/09/07 12:47:51;;;;;;;;;10.67;10.00;;;;;28.65;44.32;101128.44;146611;666;47010;-75
2022/09/07 12:52:04;;;;;;;;;;;;;;;;;;;;;
2022/09/07 12:56:01;;;;;;;;;9.75;9.00;;;;;29.55;45.26;101259.50;146607;733;46021;-75
2022/09/07 12:59:44;;;;;;;;;11.50;10.50;;;;;28.72;44.42;101109.66;146615;676;47012;-71
2022/09/07 13:03:16;;;;;;;;;12.00;11.25;;;;;28.69;44.42;101119.47;146613;609;46021;-70
2022/09/07 13:06:46;;;;;;;;;11.33;11.00;;;;;29.38;44.09;101250.00;146611;677;46016;-71
2022/09/07 13:10:07;;;;;;;;;12.50;11.00;;;;;28.40;44.82;101117.28;146612;715;47010;-72
2022/09/07 13:13:27;;;;;;;;;9.33;9.00;;;;;29.12;44.73;101253.13;146608;610;47012;-73
2022/09/07 13:16:40;;;;;;;;;13.00;10.50;;;;;29.06;45.94;101255.03;146619;701;46010;-76
2022/09/07 13:20:45;;;;;;;;;;;;;;;;;;;;;
2022/09/07 13:24:41;;;;;;;;;12.00;10.75;;;;;28.18;45.34;101114.94;146605;628;47010;-70
2022/09/07 13:28:20;;;;;;;;;13.75;13.00;;;;;28.17;45.57;101117.66;146610;591;46012;-71
2022/09/07 13:31:57;;;;;;;;;12.50;11.00;;;;;28.87;45.22;101246.41;146607;703;47010;-68
2022/09/07 13:35:14;;;;;;;;;14.25;10.75;;;;;28.84;44.20;101254.47;146608;569;46016;-69
2022/09/07 13:38:13;;;;;;;;;12.00;11.25;;;;;28.89;42.84;101252.59;146613;649;46020;-68
2022/09/07 13:41:27;;;;;;;;;11.33;10.67;;;;;28.07;44.51;101114.25;146611;628;46017;-70
2022/09/07 13:44:36;;;;;;;;;10.25;10.25;;;;;28.19;45.12;101131.81;146610;577;46020;-69
2022/09/07 13:48:14;;;;;;;;;12.75;11.00;;;;;28.82;44.55;101245.59;146610;596;47012;-72
2022/09/07 13:51:48;;;;;;;;;;;;;;;;;;;;;
2022/09/07 13:55:36;;;;;;;;;11.25;10.00;;;;;27.94;45.78;101115.31;146611;702;46017;-68
2022/09/07 13:58:59;;;;;;;;;14.00;13.50;;;;;27.16;45.82;101013.31;146614;717;46020;-69
2022/09/07 14:01:57;;;;;;;;;13.00;10.33;;;;;28.50;44.55;101260.28;146609;700;46014;-69
2022/09/07 14:04:55;;;;;;;;;10.25;9.75;;;;;28.50;44.24;101266.50;146609;716;45049;-69
2022/09/07 14:07:56;;;;;;;;;12.50;12.25;;;;;28.52;45.76;101262.03;146613;566;46915;-69
2022/09/07 14:10:51;;;;;;;;;11.75;11.75;;;;;28.57;44.20;101269.09;146614;588;46020;-71
2022/09/07 14:13:43;;;;;;;;;7.75;7.25;;;;;28.62;44.09;101269.91;146609;670;47012;-71
2022/09/07 14:16:37;;;;;;;;;11.50;11.50;;;;;28.67;43.99;101270.75;146620;667;46020;-69
2022/09/07 14:19:45;;;;;;;;;11.00;10.00;;;;;28.63;44.73;101267.25;146608;605;46915;-74
2022/09/07 14:22:42;;;;;;;;;11.25;10.75;;;;;28.65;44.44;101269.88;146610;744;46020;-72
2022/09/07 14:25:39;;;;;;;;;11.00;11.00;;;;;28.63;44.02;101271.66;146610;620;46915;-74
2022/09/07 14:28:53;;;;;;;;;14.00;12.75;;;;;27.74;45.63;101132.44;146611;587;46010;-73
2022/09/07 14:31:49;;;;;;;;;11.67;10.67;;;;;28.47;44.47;101268.34;146608;574;46915;-73
2022/09/07 14:34:43;;;;;;;;;11.25;11.00;;;;;28.42;44.46;101264.88;146607;582;46020;-71
2022/09/07 14:37:36;;;;;;;;;11.75;11.25;;;;;28.38;43.75;101264.00;146610;567;47012;-72
2022/09/07 14:40:35;;;;;;;;;14.25;11.75;;;;;28.33;45.24;101256.06;146612;690;46021;-71
2022/09/07 14:44:09;;;;;;;;;12.00;11.00;;;;;28.35;45.25;101250.72;146610;572;47014;-74
2022/09/07 14:47:23;;;;;;;;;12.75;12.75;;;;;28.37;44.00;101256.00;146613;576;46021;-72
2022/09/07 14:50:49;;;;;;;;;13.75;11.50;;;;;28.40;44.82;101261.31;146605;690;47014;-74